sensor_id;sensor_type;location;lat;lon;timestamp;temperature;humidity
31819;DHT22;18384;48.860;9.188;2022-12-07T00:01:17;6.40;99.90
31819;DHT22;18384;48.860;9.188;2022-12-07T00:03:46;6.40;99.90
31819;DHT22;18384;48.860;9.188;2022-12-07T00:06:14;6.50;99.90
31819;DHT22;18384;48.860;9.188;2022-12-07T00:08:41;6.40;99.90
31819;DHT22;18384;48.860;9.188;2022-12-07T00:11:16;6.40;99.90
31819;DHT22;18384;48.860;9.188;2022-12-07T00:13:45;6.30;99.90
31819;DHT22;18384;48.860;9.188;2022-12-07T00:16:15;6.30;99.90
31819;DHT22;18384;48.860;9.188;2022-12-07T00:18:43;6.30;99.90
31819;DHT22;18384;48.860;9.188;2022-12-07T00:21:15;6.30;99.90
31819;DHT22;18384;48.860;9.188;2022-12-07T00:23:44;6.30;99.90
31819;DHT22;18384;48.860;9.188;2022-12-07T00:26:18;6.30;99.90
31819;DHT22;18384;48.860;9.188;2022-12-07T00:28:53;6.30;99.90
31819;DHT22;18384;48.860;9.188;2022-12-07T00:31:23;6.30;99.90
31819;DHT22;18384;48.860;9.188;2022-12-07T00:33:51;6.30;99.90
31819;DHT22;18384;48.860;9.188;2022-12-07T00:36:20;6.30;99.90
31819;DHT22;18384;48.860;9.188;2022-12-07T00:38:49;6.30;99.90
31819;DHT22;18384;48.860;9.188;2022-12-07T00:41:20;6.30;99.90
31819;DHT22;18384;48.860;9.188;2022-12-07T00:43:48;6.30;99.90
31819;DHT22;18384;48.860;9.188;2022-12-07T00:46:16;6.30;99.90
31819;DHT22;18384;48.860;9.188;2022-12-07T00:48:43;6.20;99.90
31819;DHT22;18384;48.860;9.188;2022-12-07T00:51:14;6.10;99.90
31819;DHT22;18384;48.860;9.188;2022-12-07T00:53:41;6.10;99.90
31819;DHT22;18384;48.860;9.188;2022-12-07T00:56:22;6.10;99.90
31819;DHT22;18384;48.860;9.188;2022-12-07T00:58:56;6.10;99.90
31819;DHT22;18384;48.860;9.188;2022-12-07T01:01:24;6.10;99.90
31819;DHT22;18384;48.860;9.188;2022-12-07T01:03:52;6.10;99.90
31819;DHT22;18384;48.860;9.188;2022-12-07T01:06:20;6.20;99.90
31819;DHT22;18384;48.860;9.188;2022-12-07T01:08:47;6.20;99.90
31819;DHT22;18384;48.860;9.188;2022-12-07T01:11:16;6.10;99.90
31819;DHT22;18384;48.860;9.188;2022-12-07T01:13:44;6.20;99.90
31819;DHT22;18384;48.860;9.188;2022-12-07T01:16:13;6.20;99.90
31819;DHT22;18384;48.860;9.188;2022-12-07T01:18:40;6.20;99.90
31819;DHT22;18384;48.860;9.188;2022-12-07T01:21:15;6.20;99.90
31819;DHT22;18384;48.860;9.188;2022-12-07T01:23:43;6.20;99.90
31819;DHT22;18384;48.860;9.188;2022-12-07T01:26:15;6.20;99.90
31819;DHT22;18384;48.860;9.188;2022-12-07T01:28:42;6.10;99.90
31819;DHT22;18384;48.860;9.188;2022-12-07T01:31:09;6.10;99.90
31819;DHT22;18384;48.860;9.188;2022-12-07T01:33:38;6.10;99.90
31819;DHT22;18384;48.860;9.188;2022-12-07T01:36:14;6.10;99.90
31819;DHT22;18384;48.860;9.188;2022-12-07T01:38:42;6.10;99.90
31819;DHT22;18384;48.860;9.188;2022-12-07T01:41:09;6.10;99.90
31819;DHT22;18384;48.860;9.188;2022-12-07T01:43:35;6.10;99.90
31819;DHT22;18384;48.860;9.188;2022-12-07T01:46:02;6.90;99.90
31819;DHT22;18384;48.860;9.188;2022-12-07T01:48:38;6.20;99.90
31819;DHT22;18384;48.860;9.188;2022-12-07T01:51:09;6.20;99.90
31819;DHT22;18384;48.860;9.188;2022-12-07T01:53:40;6.10;99.90
31819;DHT22;18384;48.860;9.188;2022-12-07T01:56:11;6.10;99.90
31819;DHT22;18384;48.860;9.188;2022-12-07T01:58:41;6.20;99.90
31819;DHT22;18384;48.860;9.188;2022-12-07T02:01:07;6.20;99.90
31819;DHT22;18384;48.860;9.188;2022-12-07T02:03:40;6.10;99.90
31819;DHT22;18384;48.860;9.188;2022-12-07T02:06:08;5.00;99.90
31819;DHT22;18384;48.860;9.188;2022-12-07T02:08:36;6.10;99.90
31819;DHT22;18384;48.860;9.188;2022-12-07T02:11:03;6.10;99.90
31819;DHT22;18384;48.860;9.188;2022-12-07T02:13:33;6.10;99.90
31819;DHT22;18384;48.860;9.188;2022-12-07T02:28:05;6.10;99.90
31819;DHT22;18384;48.860;9.188;2022-12-07T02:30:47;6.00;99.90
31819;DHT22;18384;48.860;9.188;2022-12-07T02:33:19;6.00;99.90
31819;DHT22;18384;48.860;9.188;2022-12-07T02:36:06;5.90;99.90
31819;DHT22;18384;48.860;9.188;2022-12-07T02:39:11;6.00;99.90
31819;DHT22;18384;48.860;9.188;2022-12-07T02:43:47;5.90;99.90
31819;DHT22;18384;48.860;9.188;2022-12-07T02:46:22;5.90;99.90
31819;DHT22;18384;48.860;9.188;2022-12-07T02:48:52;5.90;99.90
31819;DHT22;18384;48.860;9.188;2022-12-07T02:51:19;5.90;99.90
31819;DHT22;18384;48.860;9.188;2022-12-07T02:53:45;5.90;99.90
31819;DHT22;18384;48.860;9.188;2022-12-07T03:01:01;5.90;99.90
31819;DHT22;18384;48.860;9.188;2022-12-07T03:03:32;6.00;99.90
31819;DHT22;18384;48.860;9.188;2022-12-07T03:06:18;5.90;99.90
31819;DHT22;18384;48.860;9.188;2022-12-07T03:08:59;5.90;99.90
31819;DHT22;18384;48.860;9.188;2022-12-07T03:11:50;5.90;99.90
31819;DHT22;18384;48.860;9.188;2022-12-07T03:14:31;5.80;99.90
31819;DHT22;18384;48.860;9.188;2022-12-07T03:19:44;5.80;99.90
31819;DHT22;18384;48.860;9.188;2022-12-07T03:22:13;5.80;99.90
31819;DHT22;18384;48.860;9.188;2022-12-07T03:24:51;5.80;99.90
31819;DHT22;18384;48.860;9.188;2022-12-07T03:27:23;5.90;99.90
31819;DHT22;18384;48.860;9.188;2022-12-07T03:30:10;5.90;99.90
31819;DHT22;18384;48.860;9.188;2022-12-07T03:32:47;5.80;99.90
31819;DHT22;18384;48.860;9.188;2022-12-07T03:35:37;5.80;99.90
31819;DHT22;18384;48.860;9.188;2022-12-07T03:38:17;5.80;99.90
31819;DHT22;18384;48.860;9.188;2022-12-07T03:41:06;5.70;99.90
31819;DHT22;18384;48.860;9.188;2022-12-07T03:43:34;5.70;99.90
31819;DHT22;18384;48.860;9.188;2022-12-07T03:46:35;5.70;99.90
31819;DHT22;18384;48.860;9.188;2022-12-07T03:49:11;5.80;99.90
31819;DHT22;18384;48.860;9.188;2022-12-07T03:57:47;5.70;99.90
31819;DHT22;18384;48.860;9.188;2022-12-07T04:00:15;5.70;99.90
31819;DHT22;18384;48.860;9.188;2022-12-07T04:02:42;5.70;99.90
31819;DHT22;18384;48.860;9.188;2022-12-07T04:05:09;5.70;99.90
31819;DHT22;18384;48.860;9.188;2022-12-07T04:07:36;5.70;99.90
31819;DHT22;18384;48.860;9.188;2022-12-07T04:10:02;5.70;99.90
31819;DHT22;18384;48.860;9.188;2022-12-07T04:12:29;5.70;99.90
31819;DHT22;18384;48.860;9.188;2022-12-07T04:14:55;5.60;99.90
31819;DHT22;18384;48.860;9.188;2022-12-07T04:17:21;5.50;99.90
31819;DHT22;18384;48.860;9.188;2022-12-07T04:19:47;5.30;99.90
31819;DHT22;18384;48.860;9.188;2022-12-07T04:22:13;5.30;99.90
31819;DHT22;18384;48.860;9.188;2022-12-07T04:24:40;5.30;99.90
31819;DHT22;18384;48.860;9.188;2022-12-07T04:27:06;5.30;99.90
31819;DHT22;18384;48.860;9.188;2022-12-07T04:29:32;5.30;99.90
31819;DHT22;18384;48.860;9.188;2022-12-07T04:31:58;5.30;99.90
31819;DHT22;18384;48.860;9.188;2022-12-07T04:34:24;5.30;99.90
31819;DHT22;18384;48.860;9.188;2022-12-07T04:36:50;5.40;99.90
31819;DHT22;18384;48.860;9.188;2022-12-07T04:39:28;5.70;99.90
31819;DHT22;18384;48.860;9.188;2022-12-07T04:41:55;5.40;99.90
31819;DHT22;18384;48.860;9.188;2022-12-07T04:44:23;5.30;99.90
31819;DHT22;18384;48.860;9.188;2022-12-07T04:46:51;5.40;99.90
31819;DHT22;18384;48.860;9.188;2022-12-07T04:49:18;5.40;99.90
31819;DHT22;18384;48.860;9.188;2022-12-07T04:51:45;5.40;99.90
31819;DHT22;18384;48.860;9.188;2022-12-07T04:54:12;5.50;99.90
31819;DHT22;18384;48.860;9.188;2022-12-07T04:56:39;5.50;99.90
31819;DHT22;18384;48.860;9.188;2022-12-07T04:59:05;5.50;99.90
31819;DHT22;18384;48.860;9.188;2022-12-07T05:01:32;5.60;99.90
31819;DHT22;18384;48.860;9.188;2022-12-07T05:03:58;5.60;99.90
31819;DHT22;18384;48.860;9.188;2022-12-07T05:06:25;5.60;99.90
31819;DHT22;18384;48.860;9.188;2022-12-07T05:08:51;5.50;99.90
31819;DHT22;18384;48.860;9.188;2022-12-07T05:11:17;5.50;99.90
31819;DHT22;18384;48.860;9.188;2022-12-07T05:14:03;5.50;99.90
31819;DHT22;18384;48.860;9.188;2022-12-07T05:16:30;5.50;99.90
31819;DHT22;18384;48.860;9.188;2022-12-07T05:18:57;5.50;99.90
31819;DHT22;18384;48.860;9.188;2022-12-07T05:21:23;5.40;99.90
31819;DHT22;18384;48.860;9.188;2022-12-07T05:23:49;5.40;99.90
31819;DHT22;18384;48.860;9.188;2022-12-07T05:26:15;5.30;99.90
31819;DHT22;18384;48.860;9.188;2022-12-07T05:28:41;5.30;99.90
31819;DHT22;18384;48.860;9.188;2022-12-07T05:31:07;5.20;99.90
31819;DHT22;18384;48.860;9.188;2022-12-07T05:33:33;5.20;99.90
31819;DHT22;18384;48.860;9.188;2022-12-07T05:35:59;5.30;99.90
31819;DHT22;18384;48.860;9.188;2022-12-07T05:38:32;5.30;99.90
31819;DHT22;18384;48.860;9.188;2022-12-07T05:41:03;5.40;99.90
31819;DHT22;18384;48.860;9.188;2022-12-07T05:43:31;5.30;99.90
31819;DHT22;18384;48.860;9.188;2022-12-07T05:45:58;5.40;99.90
31819;DHT22;18384;48.860;9.188;2022-12-07T05:48:26;5.40;99.90
31819;DHT22;18384;48.860;9.188;2022-12-07T05:50:52;5.40;99.90
31819;DHT22;18384;48.860;9.188;2022-12-07T05:53:18;5.40;99.90
31819;DHT22;18384;48.860;9.188;2022-12-07T05:55:44;5.40;99.90
31819;DHT22;18384;48.860;9.188;2022-12-07T05:58:10;5.50;99.90
31819;DHT22;18384;48.860;9.188;2022-12-07T06:00:55;5.40;99.90
31819;DHT22;18384;48.860;9.188;2022-12-07T06:03:21;5.50;99.90
31819;DHT22;18384;48.860;9.188;2022-12-07T06:05:48;5.50;99.90
31819;DHT22;18384;48.860;9.188;2022-12-07T06:08:14;5.50;99.90
31819;DHT22;18384;48.860;9.188;2022-12-07T06:10:43;5.50;99.90
31819;DHT22;18384;48.860;9.188;2022-12-07T06:13:09;5.50;99.90
31819;DHT22;18384;48.860;9.188;2022-12-07T06:15:36;5.50;99.90
31819;DHT22;18384;48.860;9.188;2022-12-07T06:18:02;5.40;99.90
31819;DHT22;18384;48.860;9.188;2022-12-07T06:20:28;5.40;99.90
31819;DHT22;18384;48.860;9.188;2022-12-07T06:22:54;5.40;99.90
31819;DHT22;18384;48.860;9.188;2022-12-07T06:25:20;5.40;99.90
31819;DHT22;18384;48.860;9.188;2022-12-07T06:27:46;5.40;99.90
31819;DHT22;18384;48.860;9.188;2022-12-07T06:30:13;5.30;99.90
31819;DHT22;18384;48.860;9.188;2022-12-07T06:32:39;5.30;99.90
31819;DHT22;18384;48.860;9.188;2022-12-07T06:35:05;5.20;99.90
31819;DHT22;18384;48.860;9.188;2022-12-07T06:37:31;5.10;99.90
31819;DHT22;18384;48.860;9.188;2022-12-07T06:39:57;5.20;99.90
31819;DHT22;18384;48.860;9.188;2022-12-07T06:42:24;5.20;99.90
31819;DHT22;18384;48.860;9.188;2022-12-07T06:44:50;5.30;99.90
31819;DHT22;18384;48.860;9.188;2022-12-07T06:47:16;5.40;99.90
31819;DHT22;18384;48.860;9.188;2022-12-07T06:49:42;5.30;99.90
31819;DHT22;18384;48.860;9.188;2022-12-07T06:52:08;5.30;99.90
31819;DHT22;18384;48.860;9.188;2022-12-07T06:54:34;5.30;99.90
31819;DHT22;18384;48.860;9.188;2022-12-07T06:57:00;5.30;99.90
31819;DHT22;18384;48.860;9.188;2022-12-07T06:59:26;5.40;99.90
31819;DHT22;18384;48.860;9.188;2022-12-07T07:01:52;5.30;99.90
31819;DHT22;18384;48.860;9.188;2022-12-07T07:04:19;5.40;99.90
31819;DHT22;18384;48.860;9.188;2022-12-07T07:06:45;5.40;99.90
31819;DHT22;18384;48.860;9.188;2022-12-07T07:09:11;5.40;99.90
31819;DHT22;18384;48.860;9.188;2022-12-07T07:11:37;5.40;99.90
31819;DHT22;18384;48.860;9.188;2022-12-07T07:14:03;5.50;99.90
31819;DHT22;18384;48.860;9.188;2022-12-07T07:16:30;5.50;99.90
31819;DHT22;18384;48.860;9.188;2022-12-07T07:18:56;5.50;99.90
31819;DHT22;18384;48.860;9.188;2022-12-07T07:21:23;5.50;99.90
31819;DHT22;18384;48.860;9.188;2022-12-07T07:23:49;5.50;99.90
31819;DHT22;18384;48.860;9.188;2022-12-07T07:26:15;5.60;99.90
31819;DHT22;18384;48.860;9.188;2022-12-07T07:28:41;5.60;99.90
31819;DHT22;18384;48.860;9.188;2022-12-07T07:31:07;5.60;99.90
31819;DHT22;18384;48.860;9.188;2022-12-07T07:33:33;5.60;99.90
31819;DHT22;18384;48.860;9.188;2022-12-07T07:35:59;5.60;99.90
31819;DHT22;18384;48.860;9.188;2022-12-07T07:38:25;5.70;99.90
31819;DHT22;18384;48.860;9.188;2022-12-07T07:40:52;5.70;99.90
31819;DHT22;18384;48.860;9.188;2022-12-07T07:43:18;5.70;99.90
31819;DHT22;18384;48.860;9.188;2022-12-07T07:45:44;5.80;99.90
31819;DHT22;18384;48.860;9.188;2022-12-07T07:48:10;5.80;99.90
31819;DHT22;18384;48.860;9.188;2022-12-07T07:50:37;5.90;99.90
31819;DHT22;18384;48.860;9.188;2022-12-07T07:53:03;5.80;99.90
31819;DHT22;18384;48.860;9.188;2022-12-07T07:55:29;5.90;99.90
31819;DHT22;18384;48.860;9.188;2022-12-07T07:57:55;5.80;99.90
31819;DHT22;18384;48.860;9.188;2022-12-07T08:00:21;5.80;99.90
31819;DHT22;18384;48.860;9.188;2022-12-07T08:02:48;5.80;99.90
31819;DHT22;18384;48.860;9.188;2022-12-07T08:05:15;5.80;99.90
31819;DHT22;18384;48.860;9.188;2022-12-07T08:07:41;5.90;99.90
31819;DHT22;18384;48.860;9.188;2022-12-07T08:10:11;5.90;99.90
31819;DHT22;18384;48.860;9.188;2022-12-07T08:12:39;5.90;99.90
31819;DHT22;18384;48.860;9.188;2022-12-07T08:15:36;5.90;99.90
31819;DHT22;18384;48.860;9.188;2022-12-07T08:18:03;5.90;99.90
31819;DHT22;18384;48.860;9.188;2022-12-07T08:22:00;5.90;99.90
31819;DHT22;18384;48.860;9.188;2022-12-07T08:24:27;6.00;99.90
31819;DHT22;18384;48.860;9.188;2022-12-07T08:26:53;6.10;99.90
31819;DHT22;18384;48.860;9.188;2022-12-07T08:29:19;6.10;99.90
31819;DHT22;18384;48.860;9.188;2022-12-07T08:31:46;6.20;99.90
31819;DHT22;18384;48.860;9.188;2022-12-07T08:34:13;6.20;99.90
31819;DHT22;18384;48.860;9.188;2022-12-07T08:36:39;6.30;99.70
31819;DHT22;18384;48.860;9.188;2022-12-07T08:39:05;6.20;99.30
31819;DHT22;18384;48.860;9.188;2022-12-07T08:41:31;6.30;99.60
31819;DHT22;18384;48.860;9.188;2022-12-07T08:43:58;6.30;99.90
31819;DHT22;18384;48.860;9.188;2022-12-07T08:46:32;6.40;99.60
31819;DHT22;18384;48.860;9.188;2022-12-07T08:49:13;6.40;99.80
31819;DHT22;18384;48.860;9.188;2022-12-07T08:51:48;6.40;99.90
31819;DHT22;18384;48.860;9.188;2022-12-07T08:54:16;6.40;99.90
31819;DHT22;18384;48.860;9.188;2022-12-07T08:56:43;6.30;99.50
31819;DHT22;18384;48.860;9.188;2022-12-07T08:59:13;6.30;99.60
31819;DHT22;18384;48.860;9.188;2022-12-07T09:01:40;6.30;99.40
31819;DHT22;18384;48.860;9.188;2022-12-07T09:04:06;6.40;99.60
31819;DHT22;18384;48.860;9.188;2022-12-07T09:06:33;6.50;99.90
31819;DHT22;18384;48.860;9.188;2022-12-07T09:09:00;6.50;99.90
31819;DHT22;18384;48.860;9.188;2022-12-07T09:11:27;6.60;99.90
31819;DHT22;18384;48.860;9.188;2022-12-07T09:13:53;6.70;99.90
31819;DHT22;18384;48.860;9.188;2022-12-07T09:16:19;6.70;99.20
31819;DHT22;18384;48.860;9.188;2022-12-07T09:18:45;6.70;99.10
31819;DHT22;18384;48.860;9.188;2022-12-07T09:21:12;6.60;99.50
31819;DHT22;18384;48.860;9.188;2022-12-07T09:23:38;6.70;99.60
31819;DHT22;18384;48.860;9.188;2022-12-07T09:26:04;6.80;99.60
31819;DHT22;18384;48.860;9.188;2022-12-07T09:28:31;6.80;99.20
31819;DHT22;18384;48.860;9.188;2022-12-07T09:30:57;6.90;99.50
31819;DHT22;18384;48.860;9.188;2022-12-07T09:33:23;6.90;99.30
31819;DHT22;18384;48.860;9.188;2022-12-07T09:35:50;6.90;99.60
31819;DHT22;18384;48.860;9.188;2022-12-07T09:38:20;6.90;98.90
31819;DHT22;18384;48.860;9.188;2022-12-07T09:40:47;6.80;99.50
31819;DHT22;18384;48.860;9.188;2022-12-07T09:43:16;6.90;99.60
31819;DHT22;18384;48.860;9.188;2022-12-07T09:45:50;7.00;99.30
31819;DHT22;18384;48.860;9.188;2022-12-07T09:48:30;6.90;99.20
31819;DHT22;18384;48.860;9.188;2022-12-07T09:51:20;7.00;99.60
31819;DHT22;18384;48.860;9.188;2022-12-07T09:53:48;7.10;98.90
31819;DHT22;18384;48.860;9.188;2022-12-07T09:56:16;7.20;99.40
31819;DHT22;18384;48.860;9.188;2022-12-07T09:58:44;7.20;98.90
31819;DHT22;18384;48.860;9.188;2022-12-07T10:01:18;7.20;99.10
31819;DHT22;18384;48.860;9.188;2022-12-07T10:03:54;7.30;98.90
31819;DHT22;18384;48.860;9.188;2022-12-07T10:06:32;7.40;98.80
31819;DHT22;18384;48.860;9.188;2022-12-07T10:08:58;7.40;98.70
31819;DHT22;18384;48.860;9.188;2022-12-07T10:11:24;7.30;98.80
31819;DHT22;18384;48.860;9.188;2022-12-07T10:13:53;7.30;99.00
31819;DHT22;18384;48.860;9.188;2022-12-07T10:16:53;7.40;98.90
31819;DHT22;18384;48.860;9.188;2022-12-07T10:19:25;7.30;99.60
31819;DHT22;18384;48.860;9.188;2022-12-07T10:22:11;7.30;99.10
31819;DHT22;18384;48.860;9.188;2022-12-07T10:24:43;7.30;99.20
31819;DHT22;18384;48.860;9.188;2022-12-07T10:27:31;7.40;99.20
31819;DHT22;18384;48.860;9.188;2022-12-07T10:29:58;7.40;99.40
31819;DHT22;18384;48.860;9.188;2022-12-07T10:32:34;7.40;99.90
31819;DHT22;18384;48.860;9.188;2022-12-07T10:35:28;7.50;99.90
31819;DHT22;18384;48.860;9.188;2022-12-07T10:37:58;7.60;99.70
31819;DHT22;18384;48.860;9.188;2022-12-07T10:40:33;7.60;99.60
31819;DHT22;18384;48.860;9.188;2022-12-07T11:08:03;7.40;99.90
31819;DHT22;18384;48.860;9.188;2022-12-07T11:11:06;7.40;99.90
31819;DHT22;18384;48.860;9.188;2022-12-07T11:14:16;7.30;99.90
31819;DHT22;18384;48.860;9.188;2022-12-07T11:17:49;7.30;99.90
31819;DHT22;18384;48.860;9.188;2022-12-07T11:20:58;7.20;99.90
31819;DHT22;18384;48.860;9.188;2022-12-07T11:24:10;7.20;99.90
31819;DHT22;18384;48.860;9.188;2022-12-07T11:35:58;7.00;99.90
31819;DHT22;18384;48.860;9.188;2022-12-07T11:38:52;6.90;99.90
31819;DHT22;18384;48.860;9.188;2022-12-07T11:41:26;6.90;99.90
31819;DHT22;18384;48.860;9.188;2022-12-07T11:44:17;6.90;99.90
31819;DHT22;18384;48.860;9.188;2022-12-07T11:47:09;6.70;99.90
31819;DHT22;18384;48.860;9.188;2022-12-07T11:50:32;6.70;99.90
31819;DHT22;18384;48.860;9.188;2022-12-07T11:53:28;6.70;99.90
31819;DHT22;18384;48.860;9.188;2022-12-07T11:56:21;6.70;99.90
31819;DHT22;18384;48.860;9.188;2022-12-07T11:58:59;6.80;99.90
31819;DHT22;18384;48.860;9.188;2022-12-07T12:05:21;7.00;99.90
31819;DHT22;18384;48.860;9.188;2022-12-07T12:08:10;7.10;99.90
31819;DHT22;18384;48.860;9.188;2022-12-07T12:10:58;7.20;99.90
31819;DHT22;18384;48.860;9.188;2022-12-07T12:15:27;7.10;99.90
31819;DHT22;18384;48.860;9.188;2022-12-07T12:22:45;7.20;99.90
31819;DHT22;18384;48.860;9.188;2022-12-07T12:25:23;7.20;99.90
31819;DHT22;18384;48.860;9.188;2022-12-07T12:27:57;7.20;99.90
31819;DHT22;18384;48.860;9.188;2022-12-07T12:30:37;6.60;99.90
31819;DHT22;18384;48.860;9.188;2022-12-07T12:33:26;7.20;99.90
31819;DHT22;18384;48.860;9.188;2022-12-07T12:36:45;7.30;99.90
31819;DHT22;18384;48.860;9.188;2022-12-07T12:39:16;7.20;99.90
31819;DHT22;18384;48.860;9.188;2022-12-07T12:42:05;7.20;99.90
31819;DHT22;18384;48.860;9.188;2022-12-07T12:48:03;7.10;99.90
31819;DHT22;18384;48.860;9.188;2022-12-07T12:51:38;7.10;99.90
31819;DHT22;18384;48.860;9.188;2022-12-07T12:54:12;7.00;99.90
31819;DHT22;18384;48.860;9.188;2022-12-07T12:57:33;7.00;99.90
31819;DHT22;18384;48.860;9.188;2022-12-07T13:03:33;7.00;99.90
31819;DHT22;18384;48.860;9.188;2022-12-07T13:09:43;7.10;99.90
31819;DHT22;18384;48.860;9.188;2022-12-07T13:12:14;7.10;99.90
31819;DHT22;18384;48.860;9.188;2022-12-07T13:15:03;7.00;99.90
31819;DHT22;18384;48.860;9.188;2022-12-07T13:19:00;7.00;99.90
31819;DHT22;18384;48.860;9.188;2022-12-07T13:21:47;7.00;99.90
31819;DHT22;18384;48.860;9.188;2022-12-07T13:24:14;7.00;99.90
31819;DHT22;18384;48.860;9.188;2022-12-07T13:26:42;7.00;99.90
31819;DHT22;18384;48.860;9.188;2022-12-07T13:29:18;7.00;99.90
31819;DHT22;18384;48.860;9.188;2022-12-07T13:31:51;7.00;99.90
31819;DHT22;18384;48.860;9.188;2022-12-07T13:34:41;7.10;99.90
31819;DHT22;18384;48.860;9.188;2022-12-07T13:37:40;7.00;99.90
31819;DHT22;18384;48.860;9.188;2022-12-07T13:40:18;7.00;99.90
31819;DHT22;18384;48.860;9.188;2022-12-07T13:42:46;7.00;99.90
31819;DHT22;18384;48.860;9.188;2022-12-07T13:45:32;6.90;99.90
31819;DHT22;18384;48.860;9.188;2022-12-07T13:48:35;7.00;99.90
31819;DHT22;18384;48.860;9.188;2022-12-07T13:51:23;7.00;99.90
31819;DHT22;18384;48.860;9.188;2022-12-07T13:53:59;7.10;99.90
31819;DHT22;18384;48.860;9.188;2022-12-07T13:56:36;7.10;99.90
31819;DHT22;18384;48.860;9.188;2022-12-07T13:59:03;7.10;99.90
31819;DHT22;18384;48.860;9.188;2022-12-07T14:01:31;7.20;99.90
31819;DHT22;18384;48.860;9.188;2022-12-07T14:04:33;7.20;99.90
31819;DHT22;18384;48.860;9.188;2022-12-07T14:07:18;7.20;99.90
31819;DHT22;18384;48.860;9.188;2022-12-07T14:10:05;7.10;99.90
31819;DHT22;18384;48.860;9.188;2022-12-07T14:12:36;7.20;99.90
31819;DHT22;18384;48.860;9.188;2022-12-07T14:15:03;7.20;99.90
31819;DHT22;18384;48.860;9.188;2022-12-07T14:17:29;7.20;99.90
31819;DHT22;18384;48.860;9.188;2022-12-07T14:19:58;7.20;99.90
31819;DHT22;18384;48.860;9.188;2022-12-07T14:22:36;7.20;99.90
31819;DHT22;18384;48.860;9.188;2022-12-07T14:25:50;7.10;99.90
31819;DHT22;18384;48.860;9.188;2022-12-07T14:28:51;7.20;99.90
31819;DHT22;18384;48.860;9.188;2022-12-07T14:31:19;7.10;99.90
31819;DHT22;18384;48.860;9.188;2022-12-07T14:33:47;7.10;99.90
31819;DHT22;18384;48.860;9.188;2022-12-07T14:36:14;7.00;99.90
31819;DHT22;18384;48.860;9.188;2022-12-07T14:38:40;6.90;99.90
31819;DHT22;18384;48.860;9.188;2022-12-07T14:41:10;6.90;99.90
31819;DHT22;18384;48.860;9.188;2022-12-07T14:43:57;6.90;99.90
31819;DHT22;18384;48.860;9.188;2022-12-07T14:46:23;6.90;99.90
31819;DHT22;18384;48.860;9.188;2022-12-07T14:48:50;6.90;99.90
31819;DHT22;18384;48.860;9.188;2022-12-07T14:51:16;6.80;99.90
31819;DHT22;18384;48.860;9.188;2022-12-07T14:53:43;6.80;99.90
31819;DHT22;18384;48.860;9.188;2022-12-07T14:56:12;6.70;99.90
31819;DHT22;18384;48.860;9.188;2022-12-07T14:58:38;6.70;99.90
31819;DHT22;18384;48.860;9.188;2022-12-07T15:01:05;6.70;99.90
31819;DHT22;18384;48.860;9.188;2022-12-07T15:03:31;6.60;99.90
31819;DHT22;18384;48.860;9.188;2022-12-07T15:06:00;6.60;99.90
31819;DHT22;18384;48.860;9.188;2022-12-07T15:08:26;6.60;99.90
31819;DHT22;18384;48.860;9.188;2022-12-07T15:10:52;6.60;99.90
31819;DHT22;18384;48.860;9.188;2022-12-07T15:13:18;6.70;99.90
31819;DHT22;18384;48.860;9.188;2022-12-07T15:16:13;6.70;99.90
31819;DHT22;18384;48.860;9.188;2022-12-07T15:18:43;6.60;99.90
31819;DHT22;18384;48.860;9.188;2022-12-07T15:21:15;6.60;99.90
31819;DHT22;18384;48.860;9.188;2022-12-07T15:23:42;6.50;99.90
31819;DHT22;18384;48.860;9.188;2022-12-07T15:26:09;6.50;99.90
31819;DHT22;18384;48.860;9.188;2022-12-07T15:28:36;6.50;99.90
31819;DHT22;18384;48.860;9.188;2022-12-07T15:31:02;6.40;99.90
31819;DHT22;18384;48.860;9.188;2022-12-07T15:33:28;6.40;99.90
31819;DHT22;18384;48.860;9.188;2022-12-07T15:35:54;6.40;99.90
31819;DHT22;18384;48.860;9.188;2022-12-07T15:38:20;6.30;99.90
31819;DHT22;18384;48.860;9.188;2022-12-07T15:40:48;6.30;99.90
31819;DHT22;18384;48.860;9.188;2022-12-07T15:43:14;6.30;99.90
31819;DHT22;18384;48.860;9.188;2022-12-07T15:45:58;6.20;99.90
31819;DHT22;18384;48.860;9.188;2022-12-07T15:48:25;6.20;99.90
31819;DHT22;18384;48.860;9.188;2022-12-07T15:50:51;6.30;99.90
31819;DHT22;18384;48.860;9.188;2022-12-07T15:53:17;6.20;99.90
31819;DHT22;18384;48.860;9.188;2022-12-07T15:55:43;6.30;99.90
31819;DHT22;18384;48.860;9.188;2022-12-07T15:58:09;6.30;99.90
31819;DHT22;18384;48.860;9.188;2022-12-07T16:00:35;6.30;99.90
31819;DHT22;18384;48.860;9.188;2022-12-07T16:03:01;6.30;99.90
31819;DHT22;18384;48.860;9.188;2022-12-07T16:05:27;6.30;99.90
31819;DHT22;18384;48.860;9.188;2022-12-07T16:07:54;6.30;99.90
31819;DHT22;18384;48.860;9.188;2022-12-07T16:10:20;6.30;99.90
31819;DHT22;18384;48.860;9.188;2022-12-07T16:12:46;6.30;99.90
31819;DHT22;18384;48.860;9.188;2022-12-07T16:15:12;6.30;99.90
31819;DHT22;18384;48.860;9.188;2022-12-07T16:17:38;6.30;99.90
31819;DHT22;18384;48.860;9.188;2022-12-07T16:20:05;6.20;99.90
31819;DHT22;18384;48.860;9.188;2022-12-07T16:22:33;6.20;99.90
31819;DHT22;18384;48.860;9.188;2022-12-07T16:24:59;6.10;99.90
31819;DHT22;18384;48.860;9.188;2022-12-07T16:27:25;6.00;99.90
31819;DHT22;18384;48.860;9.188;2022-12-07T16:29:51;6.10;99.90
31819;DHT22;18384;48.860;9.188;2022-12-07T16:32:17;6.00;99.90
31819;DHT22;18384;48.860;9.188;2022-12-07T16:34:44;6.00;99.90
31819;DHT22;18384;48.860;9.188;2022-12-07T16:37:10;5.90;99.90
31819;DHT22;18384;48.860;9.188;2022-12-07T16:39:36;5.90;99.90
31819;DHT22;18384;48.860;9.188;2022-12-07T16:42:02;5.80;99.90
31819;DHT22;18384;48.860;9.188;2022-12-07T16:44:28;5.80;99.90
31819;DHT22;18384;48.860;9.188;2022-12-07T16:46:56;5.80;99.90
31819;DHT22;18384;48.860;9.188;2022-12-07T16:49:22;5.80;99.90
31819;DHT22;18384;48.860;9.188;2022-12-07T16:51:50;5.70;99.90
31819;DHT22;18384;48.860;9.188;2022-12-07T16:54:16;5.60;99.90
31819;DHT22;18384;48.860;9.188;2022-12-07T16:56:42;5.60;99.90
31819;DHT22;18384;48.860;9.188;2022-12-07T16:59:08;5.60;99.90
31819;DHT22;18384;48.860;9.188;2022-12-07T17:01:35;5.50;99.90
31819;DHT22;18384;48.860;9.188;2022-12-07T17:04:01;5.50;99.90
31819;DHT22;18384;48.860;9.188;2022-12-07T17:06:29;5.50;99.90
31819;DHT22;18384;48.860;9.188;2022-12-07T17:08:56;5.50;99.90
31819;DHT22;18384;48.860;9.188;2022-12-07T17:11:25;5.60;99.90
31819;DHT22;18384;48.860;9.188;2022-12-07T17:13:53;5.60;99.90
31819;DHT22;18384;48.860;9.188;2022-12-07T17:16:38;5.60;99.90
31819;DHT22;18384;48.860;9.188;2022-12-07T17:19:05;5.60;99.90
31819;DHT22;18384;48.860;9.188;2022-12-07T17:21:32;5.60;99.90
31819;DHT22;18384;48.860;9.188;2022-12-07T17:23:59;5.70;99.90
31819;DHT22;18384;48.860;9.188;2022-12-07T17:26:28;5.70;99.90
31819;DHT22;18384;48.860;9.188;2022-12-07T17:28:55;5.80;99.90
31819;DHT22;18384;48.860;9.188;2022-12-07T17:31:22;5.90;99.90
31819;DHT22;18384;48.860;9.188;2022-12-07T17:33:49;5.80;99.90
31819;DHT22;18384;48.860;9.188;2022-12-07T17:36:24;5.80;99.90
31819;DHT22;18384;48.860;9.188;2022-12-07T17:38:51;5.80;99.90
31819;DHT22;18384;48.860;9.188;2022-12-07T17:41:20;5.80;99.90